sensor_id;sensor_type;location;lat;lon;timestamp;temperature;humidity
15947;DHT22;8072;52.554;7.966;2023-06-22T00:01:56;19.90;99.90
15947;DHT22;8072;52.554;7.966;2023-06-22T00:04:22;19.90;99.90
15947;DHT22;8072;52.554;7.966;2023-06-22T00:06:48;19.80;99.90
15947;DHT22;8072;52.554;7.966;2023-06-22T00:09:13;19.80;99.90
15947;DHT22;8072;52.554;7.966;2023-06-22T00:11:39;19.80;99.90
15947;DHT22;8072;52.554;7.966;2023-06-22T00:14:05;19.80;99.90
15947;DHT22;8072;52.554;7.966;2023-06-22T00:16:34;19.80;99.90
15947;DHT22;8072;52.554;7.966;2023-06-22T00:19:00;19.80;99.90
15947;DHT22;8072;52.554;7.966;2023-06-22T00:21:27;19.80;99.90
15947;DHT22;8072;52.554;7.966;2023-06-22T00:23:53;19.70;99.90
15947;DHT22;8072;52.554;7.966;2023-06-22T00:26:19;19.70;99.90
15947;DHT22;8072;52.554;7.966;2023-06-22T00:28:46;19.70;99.90
15947;DHT22;8072;52.554;7.966;2023-06-22T00:31:12;19.70;99.90
15947;DHT22;8072;52.554;7.966;2023-06-22T00:33:38;19.60;99.90
15947;DHT22;8072;52.554;7.966;2023-06-22T00:36:04;19.50;99.90
15947;DHT22;8072;52.554;7.966;2023-06-22T00:38:30;19.50;99.90
15947;DHT22;8072;52.554;7.966;2023-06-22T00:40:55;19.50;99.90
15947;DHT22;8072;52.554;7.966;2023-06-22T00:43:21;19.40;99.90
15947;DHT22;8072;52.554;7.966;2023-06-22T00:45:47;19.40;99.90
15947;DHT22;8072;52.554;7.966;2023-06-22T00:48:14;19.40;99.90
15947;DHT22;8072;52.554;7.966;2023-06-22T00:50:40;19.40;99.90
15947;DHT22;8072;52.554;7.966;2023-06-22T00:53:07;19.30;99.90
15947;DHT22;8072;52.554;7.966;2023-06-22T00:55:45;19.20;99.90
15947;DHT22;8072;52.554;7.966;2023-06-22T00:58:12;19.20;99.90
15947;DHT22;8072;52.554;7.966;2023-06-22T01:00:39;19.20;99.90
15947;DHT22;8072;52.554;7.966;2023-06-22T01:03:05;19.10;99.90
15947;DHT22;8072;52.554;7.966;2023-06-22T01:05:35;19.20;99.90
15947;DHT22;8072;52.554;7.966;2023-06-22T01:10:40;19.20;99.90
15947;DHT22;8072;52.554;7.966;2023-06-22T01:13:17;19.20;99.90
15947;DHT22;8072;52.554;7.966;2023-06-22T01:15:53;19.20;99.90
15947;DHT22;8072;52.554;7.966;2023-06-22T01:18:22;19.20;99.90
15947;DHT22;8072;52.554;7.966;2023-06-22T01:20:53;19.20;99.90
15947;DHT22;8072;52.554;7.966;2023-06-22T01:24:04;19.20;99.90
15947;DHT22;8072;52.554;7.966;2023-06-22T01:29:10;19.00;99.90
15947;DHT22;8072;52.554;7.966;2023-06-22T01:31:40;18.90;99.90
15947;DHT22;8072;52.554;7.966;2023-06-22T01:34:08;18.90;99.90
15947;DHT22;8072;52.554;7.966;2023-06-22T01:36:34;18.90;99.90
15947;DHT22;8072;52.554;7.966;2023-06-22T01:39:02;18.90;99.90
15947;DHT22;8072;52.554;7.966;2023-06-22T01:41:30;18.90;99.90
15947;DHT22;8072;52.554;7.966;2023-06-22T01:43:56;18.90;99.90
15947;DHT22;8072;52.554;7.966;2023-06-22T01:46:23;18.90;99.90
15947;DHT22;8072;52.554;7.966;2023-06-22T01:48:49;18.90;99.90
15947;DHT22;8072;52.554;7.966;2023-06-22T01:51:16;18.80;99.90
15947;DHT22;8072;52.554;7.966;2023-06-22T01:53:42;18.80;99.90
15947;DHT22;8072;52.554;7.966;2023-06-22T01:56:08;18.80;99.90
15947;DHT22;8072;52.554;7.966;2023-06-22T01:58:38;18.80;99.90
15947;DHT22;8072;52.554;7.966;2023-06-22T02:01:12;18.80;99.90
15947;DHT22;8072;52.554;7.966;2023-06-22T02:03:46;18.80;99.90
15947;DHT22;8072;52.554;7.966;2023-06-22T02:06:30;18.80;99.90
15947;DHT22;8072;52.554;7.966;2023-06-22T02:09:06;18.70;99.90
15947;DHT22;8072;52.554;7.966;2023-06-22T02:11:33;18.70;99.90
15947;DHT22;8072;52.554;7.966;2023-06-22T02:14:00;18.70;99.90
15947;DHT22;8072;52.554;7.966;2023-06-22T02:16:26;18.70;99.90
15947;DHT22;8072;52.554;7.966;2023-06-22T02:18:55;18.70;99.90
15947;DHT22;8072;52.554;7.966;2023-06-22T02:21:23;18.70;99.90
15947;DHT22;8072;52.554;7.966;2023-06-22T02:23:49;18.70;99.90
15947;DHT22;8072;52.554;7.966;2023-06-22T02:26:17;18.60;99.90
15947;DHT22;8072;52.554;7.966;2023-06-22T02:28:43;18.60;99.90
15947;DHT22;8072;52.554;7.966;2023-06-22T02:31:09;18.60;99.90
15947;DHT22;8072;52.554;7.966;2023-06-22T02:33:35;18.60;99.90
15947;DHT22;8072;52.554;7.966;2023-06-22T02:36:01;18.60;99.90
15947;DHT22;8072;52.554;7.966;2023-06-22T02:38:31;18.50;99.90
15947;DHT22;8072;52.554;7.966;2023-06-22T02:41:00;18.50;99.90
15947;DHT22;8072;52.554;7.966;2023-06-22T02:43:25;18.50;99.90
15947;DHT22;8072;52.554;7.966;2023-06-22T02:45:51;18.50;99.90
15947;DHT22;8072;52.554;7.966;2023-06-22T02:48:17;18.50;99.90
15947;DHT22;8072;52.554;7.966;2023-06-22T02:50:43;18.50;99.90
15947;DHT22;8072;52.554;7.966;2023-06-22T02:53:09;18.50;99.90
15947;DHT22;8072;52.554;7.966;2023-06-22T02:55:34;18.40;99.90
15947;DHT22;8072;52.554;7.966;2023-06-22T02:58:00;18.40;99.90
15947;DHT22;8072;52.554;7.966;2023-06-22T03:00:31;18.40;99.90
15947;DHT22;8072;52.554;7.966;2023-06-22T03:02:58;18.40;99.90
15947;DHT22;8072;52.554;7.966;2023-06-22T03:05:24;18.40;99.90
15947;DHT22;8072;52.554;7.966;2023-06-22T03:07:50;18.30;99.90
15947;DHT22;8072;52.554;7.966;2023-06-22T03:10:17;18.30;99.90
15947;DHT22;8072;52.554;7.966;2023-06-22T03:12:43;18.30;99.90
15947;DHT22;8072;52.554;7.966;2023-06-22T03:15:11;18.30;99.90
15947;DHT22;8072;52.554;7.966;2023-06-22T03:17:39;18.30;99.90
15947;DHT22;8072;52.554;7.966;2023-06-22T03:20:07;18.30;99.90
15947;DHT22;8072;52.554;7.966;2023-06-22T03:22:41;18.30;99.90
15947;DHT22;8072;52.554;7.966;2023-06-22T03:25:08;18.20;99.90
15947;DHT22;8072;52.554;7.966;2023-06-22T03:27:36;18.30;99.90
15947;DHT22;8072;52.554;7.966;2023-06-22T03:30:03;18.20;99.90
15947;DHT22;8072;52.554;7.966;2023-06-22T03:32:29;18.20;99.90
15947;DHT22;8072;52.554;7.966;2023-06-22T03:34:55;18.20;99.90
15947;DHT22;8072;52.554;7.966;2023-06-22T03:37:25;18.20;99.90
15947;DHT22;8072;52.554;7.966;2023-06-22T03:39:51;18.20;99.90
15947;DHT22;8072;52.554;7.966;2023-06-22T03:42:17;18.10;99.90
15947;DHT22;8072;52.554;7.966;2023-06-22T03:44:43;18.10;99.90
15947;DHT22;8072;52.554;7.966;2023-06-22T03:47:13;18.10;99.90
15947;DHT22;8072;52.554;7.966;2023-06-22T03:49:40;18.10;99.90
15947;DHT22;8072;52.554;7.966;2023-06-22T03:52:06;18.10;99.90
15947;DHT22;8072;52.554;7.966;2023-06-22T03:54:32;18.10;99.90
15947;DHT22;8072;52.554;7.966;2023-06-22T03:56:58;18.10;99.90
15947;DHT22;8072;52.554;7.966;2023-06-22T03:59:24;18.10;99.90
15947;DHT22;8072;52.554;7.966;2023-06-22T04:01:50;18.00;99.90
15947;DHT22;8072;52.554;7.966;2023-06-22T04:04:19;18.00;99.90
15947;DHT22;8072;52.554;7.966;2023-06-22T04:06:45;17.90;99.90
15947;DHT22;8072;52.554;7.966;2023-06-22T04:09:11;17.90;99.90
15947;DHT22;8072;52.554;7.966;2023-06-22T04:11:37;17.90;99.90
15947;DHT22;8072;52.554;7.966;2023-06-22T04:14:02;17.90;99.90
15947;DHT22;8072;52.554;7.966;2023-06-22T04:16:28;17.80;99.90
15947;DHT22;8072;52.554;7.966;2023-06-22T04:18:54;17.80;99.90
15947;DHT22;8072;52.554;7.966;2023-06-22T04:21:20;17.80;99.90
15947;DHT22;8072;52.554;7.966;2023-06-22T04:23:46;17.80;99.90
15947;DHT22;8072;52.554;7.966;2023-06-22T04:26:13;17.70;99.90
15947;DHT22;8072;52.554;7.966;2023-06-22T04:28:40;17.70;99.90
15947;DHT22;8072;52.554;7.966;2023-06-22T04:31:06;17.70;99.90
15947;DHT22;8072;52.554;7.966;2023-06-22T04:33:32;17.70;99.90
15947;DHT22;8072;52.554;7.966;2023-06-22T04:35:58;17.70;99.90
15947;DHT22;8072;52.554;7.966;2023-06-22T04:38:29;17.70;99.90
15947;DHT22;8072;52.554;7.966;2023-06-22T04:40:58;17.70;99.90
15947;DHT22;8072;52.554;7.966;2023-06-22T04:43:26;17.70;99.90
15947;DHT22;8072;52.554;7.966;2023-06-22T04:45:56;17.70;99.90
15947;DHT22;8072;52.554;7.966;2023-06-22T04:48:29;17.70;99.90
15947;DHT22;8072;52.554;7.966;2023-06-22T04:50:59;17.70;99.90
15947;DHT22;8072;52.554;7.966;2023-06-22T04:53:30;17.70;99.90
15947;DHT22;8072;52.554;7.966;2023-06-22T04:55:56;17.70;99.90
15947;DHT22;8072;52.554;7.966;2023-06-22T04:58:22;17.70;99.90
15947;DHT22;8072;52.554;7.966;2023-06-22T05:00:48;17.80;99.90
15947;DHT22;8072;52.554;7.966;2023-06-22T05:03:16;17.80;99.90
15947;DHT22;8072;52.554;7.966;2023-06-22T05:05:44;17.90;99.90
15947;DHT22;8072;52.554;7.966;2023-06-22T05:08:10;17.90;99.90
15947;DHT22;8072;52.554;7.966;2023-06-22T05:10:37;18.00;99.90
15947;DHT22;8072;52.554;7.966;2023-06-22T05:13:02;18.00;99.90
15947;DHT22;8072;52.554;7.966;2023-06-22T05:15:28;18.00;99.90
15947;DHT22;8072;52.554;7.966;2023-06-22T05:17:56;18.00;99.90
15947;DHT22;8072;52.554;7.966;2023-06-22T05:20:22;18.10;99.90
15947;DHT22;8072;52.554;7.966;2023-06-22T05:22:48;18.10;99.90
15947;DHT22;8072;52.554;7.966;2023-06-22T05:25:13;18.10;99.90
15947;DHT22;8072;52.554;7.966;2023-06-22T05:27:39;18.20;99.90
15947;DHT22;8072;52.554;7.966;2023-06-22T05:30:06;18.20;99.90
15947;DHT22;8072;52.554;7.966;2023-06-22T05:32:33;18.40;99.90
15947;DHT22;8072;52.554;7.966;2023-06-22T05:34:59;18.50;99.90
15947;DHT22;8072;52.554;7.966;2023-06-22T05:37:25;18.60;99.90
15947;DHT22;8072;52.554;7.966;2023-06-22T05:39:51;18.60;99.90
15947;DHT22;8072;52.554;7.966;2023-06-22T05:42:17;18.70;99.90
15947;DHT22;8072;52.554;7.966;2023-06-22T05:44:43;18.70;99.90
15947;DHT22;8072;52.554;7.966;2023-06-22T05:47:09;18.80;99.90
15947;DHT22;8072;52.554;7.966;2023-06-22T05:49:35;18.80;99.90
15947;DHT22;8072;52.554;7.966;2023-06-22T05:52:00;18.90;99.90
15947;DHT22;8072;52.554;7.966;2023-06-22T05:54:30;18.80;99.90
15947;DHT22;8072;52.554;7.966;2023-06-22T05:56:55;18.90;99.90
15947;DHT22;8072;52.554;7.966;2023-06-22T05:59:21;18.90;99.90
15947;DHT22;8072;52.554;7.966;2023-06-22T06:01:47;18.90;99.90
15947;DHT22;8072;52.554;7.966;2023-06-22T06:04:18;18.90;99.90
15947;DHT22;8072;52.554;7.966;2023-06-22T06:06:44;19.00;99.90
15947;DHT22;8072;52.554;7.966;2023-06-22T06:09:13;19.00;99.90
15947;DHT22;8072;52.554;7.966;2023-06-22T06:11:39;19.00;99.90
15947;DHT22;8072;52.554;7.966;2023-06-22T06:14:04;19.00;99.90
15947;DHT22;8072;52.554;7.966;2023-06-22T06:16:30;19.10;99.90
15947;DHT22;8072;52.554;7.966;2023-06-22T06:18:56;19.10;99.90
15947;DHT22;8072;52.554;7.966;2023-06-22T06:21:22;19.20;99.90
15947;DHT22;8072;52.554;7.966;2023-06-22T06:23:48;19.20;99.90
15947;DHT22;8072;52.554;7.966;2023-06-22T06:26:13;19.30;99.90
15947;DHT22;8072;52.554;7.966;2023-06-22T06:28:42;19.40;99.90
15947;DHT22;8072;52.554;7.966;2023-06-22T06:31:08;19.40;99.90
15947;DHT22;8072;52.554;7.966;2023-06-22T06:33:35;19.50;99.90
15947;DHT22;8072;52.554;7.966;2023-06-22T06:36:01;19.50;99.90
15947;DHT22;8072;52.554;7.966;2023-06-22T06:38:29;19.60;99.90
15947;DHT22;8072;52.554;7.966;2023-06-22T06:40:55;19.60;99.90
15947;DHT22;8072;52.554;7.966;2023-06-22T06:43:21;19.70;99.90
15947;DHT22;8072;52.554;7.966;2023-06-22T06:45:48;19.80;99.90
15947;DHT22;8072;52.554;7.966;2023-06-22T06:48:13;19.80;99.90
15947;DHT22;8072;52.554;7.966;2023-06-22T06:50:39;19.90;99.90
15947;DHT22;8072;52.554;7.966;2023-06-22T06:53:06;20.00;99.90
15947;DHT22;8072;52.554;7.966;2023-06-22T06:55:32;20.00;99.90
15947;DHT22;8072;52.554;7.966;2023-06-22T06:58:02;20.10;99.90
15947;DHT22;8072;52.554;7.966;2023-06-22T07:00:29;20.20;99.90
15947;DHT22;8072;52.554;7.966;2023-06-22T07:02:55;20.30;99.90
15947;DHT22;8072;52.554;7.966;2023-06-22T07:05:21;20.40;99.90
15947;DHT22;8072;52.554;7.966;2023-06-22T07:07:46;20.40;99.90
15947;DHT22;8072;52.554;7.966;2023-06-22T07:10:12;20.40;99.90
15947;DHT22;8072;52.554;7.966;2023-06-22T07:12:38;20.50;99.90
15947;DHT22;8072;52.554;7.966;2023-06-22T07:15:05;20.60;99.90
15947;DHT22;8072;52.554;7.966;2023-06-22T07:17:34;20.60;99.90
15947;DHT22;8072;52.554;7.966;2023-06-22T07:20:00;20.70;99.90
15947;DHT22;8072;52.554;7.966;2023-06-22T07:22:26;20.80;99.90
15947;DHT22;8072;52.554;7.966;2023-06-22T07:24:52;20.90;99.90
15947;DHT22;8072;52.554;7.966;2023-06-22T07:27:18;21.10;99.90
15947;DHT22;8072;52.554;7.966;2023-06-22T07:29:46;21.10;99.90
15947;DHT22;8072;52.554;7.966;2023-06-22T07:32:12;21.30;99.90
15947;DHT22;8072;52.554;7.966;2023-06-22T07:34:38;21.40;99.90
15947;DHT22;8072;52.554;7.966;2023-06-22T07:37:04;21.50;99.90
15947;DHT22;8072;52.554;7.966;2023-06-22T07:39:30;21.50;99.90
15947;DHT22;8072;52.554;7.966;2023-06-22T07:41:56;21.60;99.90
15947;DHT22;8072;52.554;7.966;2023-06-22T07:44:22;21.60;99.90
15947;DHT22;8072;52.554;7.966;2023-06-22T07:46:47;21.60;99.90
15947;DHT22;8072;52.554;7.966;2023-06-22T07:49:14;21.70;99.90
15947;DHT22;8072;52.554;7.966;2023-06-22T07:51:39;21.70;99.90
15947;DHT22;8072;52.554;7.966;2023-06-22T07:54:05;21.80;99.90
15947;DHT22;8072;52.554;7.966;2023-06-22T07:56:31;21.90;99.90
15947;DHT22;8072;52.554;7.966;2023-06-22T07:58:57;21.90;99.90
15947;DHT22;8072;52.554;7.966;2023-06-22T08:01:24;21.90;99.90
15947;DHT22;8072;52.554;7.966;2023-06-22T08:03:50;22.00;99.90
15947;DHT22;8072;52.554;7.966;2023-06-22T08:06:16;22.10;99.90
15947;DHT22;8072;52.554;7.966;2023-06-22T08:08:42;22.20;99.90
15947;DHT22;8072;52.554;7.966;2023-06-22T08:11:09;22.30;99.90
15947;DHT22;8072;52.554;7.966;2023-06-22T08:13:35;22.30;99.90
15947;DHT22;8072;52.554;7.966;2023-06-22T08:16:00;22.40;99.90
15947;DHT22;8072;52.554;7.966;2023-06-22T08:18:26;22.50;99.90
15947;DHT22;8072;52.554;7.966;2023-06-22T08:20:52;22.50;99.90
15947;DHT22;8072;52.554;7.966;2023-06-22T08:23:18;22.60;99.90
15947;DHT22;8072;52.554;7.966;2023-06-22T08:25:44;22.60;99.90
15947;DHT22;8072;52.554;7.966;2023-06-22T08:28:10;22.60;99.90
15947;DHT22;8072;52.554;7.966;2023-06-22T08:30:35;22.70;99.90
15947;DHT22;8072;52.554;7.966;2023-06-22T08:33:04;22.70;99.90
15947;DHT22;8072;52.554;7.966;2023-06-22T08:35:30;22.80;99.90
15947;DHT22;8072;52.554;7.966;2023-06-22T08:37:55;22.90;99.90
15947;DHT22;8072;52.554;7.966;2023-06-22T08:40:22;23.00;99.90
15947;DHT22;8072;52.554;7.966;2023-06-22T08:42:48;23.00;99.90
15947;DHT22;8072;52.554;7.966;2023-06-22T08:45:15;23.10;99.90
15947;DHT22;8072;52.554;7.966;2023-06-22T08:47:41;23.10;99.90
15947;DHT22;8072;52.554;7.966;2023-06-22T08:50:09;23.10;99.90
15947;DHT22;8072;52.554;7.966;2023-06-22T08:52:35;23.20;99.90
15947;DHT22;8072;52.554;7.966;2023-06-22T08:55:01;23.20;99.90
15947;DHT22;8072;52.554;7.966;2023-06-22T08:57:28;23.20;99.90
15947;DHT22;8072;52.554;7.966;2023-06-22T08:59:54;23.20;99.90
15947;DHT22;8072;52.554;7.966;2023-06-22T09:02:24;23.20;99.90
15947;DHT22;8072;52.554;7.966;2023-06-22T09:04:50;23.30;99.90
15947;DHT22;8072;52.554;7.966;2023-06-22T09:07:24;23.30;99.90
15947;DHT22;8072;52.554;7.966;2023-06-22T09:09:51;23.40;99.90
15947;DHT22;8072;52.554;7.966;2023-06-22T09:12:18;23.50;99.90
15947;DHT22;8072;52.554;7.966;2023-06-22T09:14:51;23.50;99.90
15947;DHT22;8072;52.554;7.966;2023-06-22T09:17:17;23.70;99.90
15947;DHT22;8072;52.554;7.966;2023-06-22T09:19:43;23.80;99.90
15947;DHT22;8072;52.554;7.966;2023-06-22T09:22:08;23.90;99.90
15947;DHT22;8072;52.554;7.966;2023-06-22T09:24:34;24.00;99.90
15947;DHT22;8072;52.554;7.966;2023-06-22T09:27:00;24.10;99.90
15947;DHT22;8072;52.554;7.966;2023-06-22T09:29:26;24.10;99.90
15947;DHT22;8072;52.554;7.966;2023-06-22T09:31:52;24.10;99.90
15947;DHT22;8072;52.554;7.966;2023-06-22T09:34:21;24.10;99.90
15947;DHT22;8072;52.554;7.966;2023-06-22T09:36:47;24.10;99.90
15947;DHT22;8072;52.554;7.966;2023-06-22T09:39:13;24.10;99.90
15947;DHT22;8072;52.554;7.966;2023-06-22T09:41:38;24.10;99.90
15947;DHT22;8072;52.554;7.966;2023-06-22T09:44:04;24.20;99.90
15947;DHT22;8072;52.554;7.966;2023-06-22T09:46:30;24.20;99.90
15947;DHT22;8072;52.554;7.966;2023-06-22T09:48:55;24.30;99.90
15947;DHT22;8072;52.554;7.966;2023-06-22T09:51:22;24.30;99.90
15947;DHT22;8072;52.554;7.966;2023-06-22T09:53:49;24.40;99.90
15947;DHT22;8072;52.554;7.966;2023-06-22T09:56:15;24.50;99.90
15947;DHT22;8072;52.554;7.966;2023-06-22T09:58:46;24.50;99.90
15947;DHT22;8072;52.554;7.966;2023-06-22T10:01:12;24.50;99.90
15947;DHT22;8072;52.554;7.966;2023-06-22T10:03:40;24.50;99.90
15947;DHT22;8072;52.554;7.966;2023-06-22T10:06:08;24.50;99.90
15947;DHT22;8072;52.554;7.966;2023-06-22T10:08:34;24.50;99.90
15947;DHT22;8072;52.554;7.966;2023-06-22T10:11:01;24.50;99.90
15947;DHT22;8072;52.554;7.966;2023-06-22T10:13:26;24.50;99.90
15947;DHT22;8072;52.554;7.966;2023-06-22T10:15:52;24.50;99.90
15947;DHT22;8072;52.554;7.966;2023-06-22T10:18:18;24.50;99.90
15947;DHT22;8072;52.554;7.966;2023-06-22T10:20:48;24.50;99.90
15947;DHT22;8072;52.554;7.966;2023-06-22T10:23:14;24.40;99.90
15947;DHT22;8072;52.554;7.966;2023-06-22T10:25:40;24.50;99.90
15947;DHT22;8072;52.554;7.966;2023-06-22T10:28:06;24.40;99.90
15947;DHT22;8072;52.554;7.966;2023-06-22T10:30:33;24.50;99.90
15947;DHT22;8072;52.554;7.966;2023-06-22T10:32:58;24.40;99.90
15947;DHT22;8072;52.554;7.966;2023-06-22T10:35:24;24.50;99.90
15947;DHT22;8072;52.554;7.966;2023-06-22T10:37:50;24.50;99.90
15947;DHT22;8072;52.554;7.966;2023-06-22T10:40:17;24.50;99.90
15947;DHT22;8072;52.554;7.966;2023-06-22T10:42:44;24.50;99.90
15947;DHT22;8072;52.554;7.966;2023-06-22T10:45:10;24.50;99.90
15947;DHT22;8072;52.554;7.966;2023-06-22T10:47:36;24.50;99.90
15947;DHT22;8072;52.554;7.966;2023-06-22T10:50:03;24.40;99.90
15947;DHT22;8072;52.554;7.966;2023-06-22T10:52:29;24.40;99.90
15947;DHT22;8072;52.554;7.966;2023-06-22T10:54:55;24.50;99.90
15947;DHT22;8072;52.554;7.966;2023-06-22T10:57:21;24.50;99.90
15947;DHT22;8072;52.554;7.966;2023-06-22T10:59:47;24.60;99.90
15947;DHT22;8072;52.554;7.966;2023-06-22T11:02:12;24.60;99.90
15947;DHT22;8072;52.554;7.966;2023-06-22T11:04:38;24.70;99.90
15947;DHT22;8072;52.554;7.966;2023-06-22T11:07:04;24.70;99.90
15947;DHT22;8072;52.554;7.966;2023-06-22T11:09:30;24.70;99.90
15947;DHT22;8072;52.554;7.966;2023-06-22T11:11:56;24.70;99.90
15947;DHT22;8072;52.554;7.966;2023-06-22T11:14:24;24.70;99.90
15947;DHT22;8072;52.554;7.966;2023-06-22T11:16:50;24.60;99.90
15947;DHT22;8072;52.554;7.966;2023-06-22T11:19:16;24.60;99.90
15947;DHT22;8072;52.554;7.966;2023-06-22T11:21:42;24.60;99.90
15947;DHT22;8072;52.554;7.966;2023-06-22T11:24:07;24.50;99.90
15947;DHT22;8072;52.554;7.966;2023-06-22T11:26:35;24.50;99.90
15947;DHT22;8072;52.554;7.966;2023-06-22T11:29:01;24.50;99.90
15947;DHT22;8072;52.554;7.966;2023-06-22T11:31:31;24.50;99.90
15947;DHT22;8072;52.554;7.966;2023-06-22T11:33:56;24.50;99.90
15947;DHT22;8072;52.554;7.966;2023-06-22T11:36:22;24.50;99.90
15947;DHT22;8072;52.554;7.966;2023-06-22T11:38:48;24.50;99.90
15947;DHT22;8072;52.554;7.966;2023-06-22T11:41:14;24.50;99.90
15947;DHT22;8072;52.554;7.966;2023-06-22T11:43:39;24.50;99.90
15947;DHT22;8072;52.554;7.966;2023-06-22T11:46:05;24.50;99.90
15947;DHT22;8072;52.554;7.966;2023-06-22T11:48:31;24.50;99.90
15947;DHT22;8072;52.554;7.966;2023-06-22T11:50:57;24.50;99.90
15947;DHT22;8072;52.554;7.966;2023-06-22T11:53:25;24.50;99.90
15947;DHT22;8072;52.554;7.966;2023-06-22T11:55:51;24.50;99.90
15947;DHT22;8072;52.554;7.966;2023-06-22T11:58:18;24.60;99.90
15947;DHT22;8072;52.554;7.966;2023-06-22T12:00:44;24.50;99.90
15947;DHT22;8072;52.554;7.966;2023-06-22T12:03:10;24.50;99.90
15947;DHT22;8072;52.554;7.966;2023-06-22T12:05:37;24.50;99.90
15947;DHT22;8072;52.554;7.966;2023-06-22T12:08:04;24.50;99.90
15947;DHT22;8072;52.554;7.966;2023-06-22T12:10:30;24.50;99.90
15947;DHT22;8072;52.554;7.966;2023-06-22T12:12:56;24.60;99.90
15947;DHT22;8072;52.554;7.966;2023-06-22T12:15:23;24.50;99.90
15947;DHT22;8072;52.554;7.966;2023-06-22T12:17:49;24.60;99.90
15947;DHT22;8072;52.554;7.966;2023-06-22T12:20:15;24.60;99.90
15947;DHT22;8072;52.554;7.966;2023-06-22T12:22:43;24.60;99.90
15947;DHT22;8072;52.554;7.966;2023-06-22T12:25:09;24.50;99.90
15947;DHT22;8072;52.554;7.966;2023-06-22T12:27:38;24.60;99.90
15947;DHT22;8072;52.554;7.966;2023-06-22T12:30:04;24.50;99.90
15947;DHT22;8072;52.554;7.966;2023-06-22T12:32:30;24.60;99.90
15947;DHT22;8072;52.554;7.966;2023-06-22T12:34:56;24.60;99.90
15947;DHT22;8072;52.554;7.966;2023-06-22T12:37:23;24.70;99.90
15947;DHT22;8072;52.554;7.966;2023-06-22T12:39:49;24.70;99.90
15947;DHT22;8072;52.554;7.966;2023-06-22T12:42:17;24.70;99.90
15947;DHT22;8072;52.554;7.966;2023-06-22T12:44:43;24.80;99.90
15947;DHT22;8072;52.554;7.966;2023-06-22T12:47:09;24.80;99.90
15947;DHT22;8072;52.554;7.966;2023-06-22T12:49:35;24.80;99.90
15947;DHT22;8072;52.554;7.966;2023-06-22T12:52:01;24.80;99.90
15947;DHT22;8072;52.554;7.966;2023-06-22T12:54:27;24.70;99.90
15947;DHT22;8072;52.554;7.966;2023-06-22T12:56:55;24.70;99.90
15947;DHT22;8072;52.554;7.966;2023-06-22T12:59:20;24.70;99.90
15947;DHT22;8072;52.554;7.966;2023-06-22T13:01:46;24.60;99.90
15947;DHT22;8072;52.554;7.966;2023-06-22T13:04:12;24.60;99.90
15947;DHT22;8072;52.554;7.966;2023-06-22T13:06:47;24.60;99.90
15947;DHT22;8072;52.554;7.966;2023-06-22T13:09:18;24.50;99.90
15947;DHT22;8072;52.554;7.966;2023-06-22T13:11:44;24.50;99.90
15947;DHT22;8072;52.554;7.966;2023-06-22T13:14:10;24.50;99.90
15947;DHT22;8072;52.554;7.966;2023-06-22T13:16:36;24.40;99.90
15947;DHT22;8072;52.554;7.966;2023-06-22T13:19:01;24.40;99.90
15947;DHT22;8072;52.554;7.966;2023-06-22T13:21:27;24.30;99.90
15947;DHT22;8072;52.554;7.966;2023-06-22T13:23:53;24.30;99.90
15947;DHT22;8072;52.554;7.966;2023-06-22T13:26:19;24.20;99.90
15947;DHT22;8072;52.554;7.966;2023-06-22T13:28:44;24.10;99.90
15947;DHT22;8072;52.554;7.966;2023-06-22T13:31:10;24.10;99.90
15947;DHT22;8072;52.554;7.966;2023-06-22T13:33:37;24.10;99.90
15947;DHT22;8072;52.554;7.966;2023-06-22T13:36:03;24.10;99.90
15947;DHT22;8072;52.554;7.966;2023-06-22T13:38:29;24.10;99.90
15947;DHT22;8072;52.554;7.966;2023-06-22T13:40:56;24.10;99.90
15947;DHT22;8072;52.554;7.966;2023-06-22T13:43:24;24.10;99.90
15947;DHT22;8072;52.554;7.966;2023-06-22T13:45:50;24.00;99.90
15947;DHT22;8072;52.554;7.966;2023-06-22T13:48:15;24.10;99.90
15947;DHT22;8072;52.554;7.966;2023-06-22T13:50:41;24.00;99.90
15947;DHT22;8072;52.554;7.966;2023-06-22T13:53:07;24.00;99.90
15947;DHT22;8072;52.554;7.966;2023-06-22T13:55:32;24.00;99.90
15947;DHT22;8072;52.554;7.966;2023-06-22T13:57:58;23.90;99.90
15947;DHT22;8072;52.554;7.966;2023-06-22T14:00:24;23.90;99.90
15947;DHT22;8072;52.554;7.966;2023-06-22T14:02:49;23.90;99.90
15947;DHT22;8072;52.554;7.966;2023-06-22T14:05:16;23.90;99.90
15947;DHT22;8072;52.554;7.966;2023-06-22T14:07:41;23.90;99.90
15947;DHT22;8072;52.554;7.966;2023-06-22T14:10:07;23.90;99.90
15947;DHT22;8072;52.554;7.966;2023-06-22T14:12:33;23.90;99.90
15947;DHT22;8072;52.554;7.966;2023-06-22T14:14:59;23.90;99.90
15947;DHT22;8072;52.554;7.966;2023-06-22T14:17:25;23.80;99.90
15947;DHT22;8072;52.554;7.966;2023-06-22T14:19:52;23.70;99.90
15947;DHT22;8072;52.554;7.966;2023-06-22T14:22:21;23.70;99.90
15947;DHT22;8072;52.554;7.966;2023-06-22T14:24:48;23.60;99.90
15947;DHT22;8072;52.554;7.966;2023-06-22T14:27:14;23.50;99.90
15947;DHT22;8072;52.554;7.966;2023-06-22T14:29:41;23.40;99.90
15947;DHT22;8072;52.554;7.966;2023-06-22T14:32:07;23.40;99.90
15947;DHT22;8072;52.554;7.966;2023-06-22T14:34:33;23.30;99.90
15947;DHT22;8072;52.554;7.966;2023-06-22T14:37:02;23.30;99.90
15947;DHT22;8072;52.554;7.966;2023-06-22T14:39:28;23.30;99.90
15947;DHT22;8072;52.554;7.966;2023-06-22T14:41:54;23.30;99.90
15947;DHT22;8072;52.554;7.966;2023-06-22T14:44:20;23.30;99.90
15947;DHT22;8072;52.554;7.966;2023-06-22T14:46:45;23.30;99.90
15947;DHT22;8072;52.554;7.966;2023-06-22T14:49:11;23.20;99.90
15947;DHT22;8072;52.554;7.966;2023-06-22T14:51:39;23.20;99.90
15947;DHT22;8072;52.554;7.966;2023-06-22T14:54:05;23.10;99.90
15947;DHT22;8072;52.554;7.966;2023-06-22T14:56:31;23.10;99.90
15947;DHT22;8072;52.554;7.966;2023-06-22T14:58:57;23.00;99.90
15947;DHT22;8072;52.554;7.966;2023-06-22T15:01:22;23.00;99.90
15947;DHT22;8072;52.554;7.966;2023-06-22T15:03:48;23.00;99.90
15947;DHT22;8072;52.554;7.966;2023-06-22T15:06:14;23.00;99.90
15947;DHT22;8072;52.554;7.966;2023-06-22T15:08:40;22.90;99.90
15947;DHT22;8072;52.554;7.966;2023-06-22T15:11:06;22.90;99.90
15947;DHT22;8072;52.554;7.966;2023-06-22T15:13:33;22.90;99.90
15947;DHT22;8072;52.554;7.966;2023-06-22T15:16:03;22.90;99.90
15947;DHT22;8072;52.554;7.966;2023-06-22T15:18:29;23.00;99.90
15947;DHT22;8072;52.554;7.966;2023-06-22T15:20:55;23.00;99.90
15947;DHT22;8072;52.554;7.966;2023-06-22T15:23:21;23.00;99.90
15947;DHT22;8072;52.554;7.966;2023-06-22T15:25:47;23.00;99.90
15947;DHT22;8072;52.554;7.966;2023-06-22T15:28:13;23.10;99.90
15947;DHT22;8072;52.554;7.966;2023-06-22T15:30:39;23.10;99.90
15947;DHT22;8072;52.554;7.966;2023-06-22T15:33:04;23.10;99.90
15947;DHT22;8072;52.554;7.966;2023-06-22T15:35:30;23.10;99.90
15947;DHT22;8072;52.554;7.966;2023-06-22T15:37:56;23.10;99.90
15947;DHT22;8072;52.554;7.966;2023-06-22T15:40:22;23.10;99.90
15947;DHT22;8072;52.554;7.966;2023-06-22T15:42:51;23.10;99.90
15947;DHT22;8072;52.554;7.966;2023-06-22T15:45:16;23.10;99.90
15947;DHT22;8072;52.554;7.966;2023-06-22T15:47:42;23.00;99.90